createdAt,value
2022-10-28T00:00:45.808Z,63.47
2022-10-28T00:03:12.460Z,63.05
2022-10-28T00:05:39.080Z,62.74
2022-10-28T00:08:06.071Z,63.02
2022-10-28T00:10:32.871Z,63.54
2022-10-28T00:13:00.929Z,63.28
2022-10-28T00:15:27.563Z,62.96
2022-10-28T00:17:54.429Z,62.83
2022-10-28T00:20:21.299Z,62.46
2022-10-28T00:22:47.969Z,62.46
2022-10-28T00:25:14.785Z,62.48
2022-10-28T00:27:41.489Z,62.56
2022-10-28T00:30:10.694Z,62.92
2022-10-28T00:32:37.280Z,62.60
2022-10-28T00:35:04.580Z,62.80
2022-10-28T00:37:31.249Z,63.23
2022-10-28T00:39:57.962Z,63.19
2022-10-28T00:42:24.705Z,63.43
2022-10-28T00:44:57.448Z,63.77
2022-10-28T00:47:56.039Z,63.72
2022-10-28T00:50:38.686Z,63.38
2022-10-28T00:53:07.632Z,63.64
2022-10-28T00:55:36.199Z,63.71
2022-10-28T00:58:05.985Z,63.92
2022-10-28T01:00:32.851Z,64.44
2022-10-28T01:03:01.008Z,64.25
2022-10-28T01:05:31.254Z,63.98
2022-10-28T01:08:00.201Z,63.35
2022-10-28T01:10:40.198Z,63.95
2022-10-28T01:13:15.509Z,63.46
2022-10-28T01:15:48.236Z,63.78
2022-10-28T01:18:27.672Z,63.87
2022-10-28T01:21:34.087Z,63.80
2022-10-28T01:24:15.550Z,63.65
2022-10-28T01:27:01.004Z,64.02
2022-10-28T01:30:06.327Z,63.74
2022-10-28T01:32:44.035Z,63.66
2022-10-28T01:35:18.057Z,62.94
2022-10-28T01:37:49.156Z,63.11
2022-10-28T01:40:20.852Z,63.23
2022-10-28T01:42:54.432Z,63.84
2022-10-28T01:45:27.768Z,63.64
2022-10-28T01:48:01.490Z,63.05
2022-10-28T01:50:32.745Z,63.16
2022-10-28T01:53:03.677Z,63.16
2022-10-28T01:55:34.789Z,63.11
2022-10-28T01:58:04.417Z,63.63
2022-10-28T02:00:32.871Z,64.02
2022-10-28T02:03:01.051Z,63.88
2022-10-28T02:05:39.566Z,63.68
2022-10-28T02:08:21.535Z,63.58
2022-10-28T02:11:00.089Z,63.71
2022-10-28T02:13:34.197Z,63.50
2022-10-28T02:16:07.398Z,63.68
2022-10-28T02:18:43.778Z,63.80
2022-10-28T02:21:18.140Z,63.72
2022-10-28T02:23:48.481Z,63.56
2022-10-28T02:26:22.201Z,64.36
2022-10-28T02:28:55.055Z,64.08
2022-10-28T02:31:26.545Z,64.36
2022-10-28T02:33:59.529Z,64.49
2022-10-28T02:36:29.684Z,64.67
2022-10-28T02:38:58.795Z,64.58
2022-10-28T02:41:30.463Z,64.82
2022-10-28T02:44:01.980Z,64.27
2022-10-28T02:46:31.561Z,64.77
2022-10-28T02:49:03.871Z,64.45
2022-10-28T02:51:35.356Z,64.13
2022-10-28T02:54:07.498Z,64.13
2022-10-28T02:56:38.394Z,64.59
2022-10-28T02:59:09.646Z,64.75
2022-10-28T03:01:36.489Z,65.27
2022-10-28T03:04:05.244Z,65.13
2022-10-28T03:06:31.914Z,65.15
2022-10-28T03:08:58.719Z,65.01
2022-10-28T03:11:25.348Z,64.48
2022-10-28T03:13:51.958Z,64.22
2022-10-28T03:16:18.621Z,64.46
2022-10-28T03:18:45.269Z,64.13
2022-10-28T03:21:13.223Z,63.72
2022-10-28T03:23:39.856Z,63.43
2022-10-28T03:26:06.543Z,63.62
2022-10-28T03:28:33.240Z,63.17
2022-10-28T03:30:59.934Z,62.98
2022-10-28T03:33:26.659Z,62.73
2022-10-28T03:35:53.310Z,62.73
2022-10-28T03:38:21.319Z,63.16
2022-10-28T03:40:48.841Z,63.65
2022-10-28T03:43:15.568Z,63.41
2022-10-28T03:45:42.273Z,63.60
2022-10-28T03:48:08.993Z,63.82
2022-10-28T03:50:35.846Z,63.69
2022-10-28T03:53:02.536Z,64.13
2022-10-28T03:55:30.562Z,64.15
2022-10-28T03:58:00.277Z,64.74
2022-10-28T04:00:27.112Z,64.38
2022-10-28T04:02:54.053Z,64.21
2022-10-28T04:05:21.606Z,63.89
2022-10-28T04:07:48.494Z,63.72
2022-10-28T04:10:15.670Z,63.96
2022-10-28T04:12:43.644Z,64.41
2022-10-28T04:15:10.538Z,64.75
2022-10-28T04:17:37.211Z,64.37
2022-10-28T04:20:04.591Z,64.83
2022-10-28T04:22:31.221Z,65.02
2022-10-28T04:24:57.866Z,65.09
2022-10-28T04:27:24.487Z,64.45
2022-10-28T04:29:52.462Z,64.06
2022-10-28T04:32:19.116Z,64.05
2022-10-28T04:34:45.764Z,64.32
2022-10-28T04:37:14.910Z,64.62
2022-10-28T04:39:43.601Z,64.48
2022-10-28T04:42:10.193Z,63.94
2022-10-28T04:44:37.125Z,63.75
2022-10-28T04:47:05.210Z,63.72
2022-10-28T04:49:34.324Z,64.07
2022-10-28T04:52:03.552Z,63.52
2022-10-28T04:54:30.215Z,63.49
2022-10-28T04:56:56.914Z,64.22
2022-10-28T04:59:23.612Z,63.91
2022-10-28T05:01:50.440Z,64.34
2022-10-28T05:04:18.556Z,64.38
2022-10-28T05:06:45.247Z,64.35
2022-10-28T05:09:11.986Z,64.18
2022-10-28T05:11:38.710Z,64.42
2022-10-28T05:14:05.406Z,64.86
2022-10-28T05:16:32.048Z,64.61
2022-10-28T05:18:58.745Z,64.76
2022-10-28T05:21:26.851Z,64.53
2022-10-28T05:23:53.574Z,65.08
2022-10-28T05:26:20.315Z,64.95
2022-10-28T05:28:49.181Z,64.25
2022-10-28T05:31:15.944Z,63.76
2022-10-28T05:33:42.630Z,64.74
2022-10-28T05:36:09.312Z,64.33
2022-10-28T05:38:37.398Z,64.37
2022-10-28T05:41:04.164Z,64.59
2022-10-28T05:43:30.826Z,64.96
2022-10-28T05:45:58.192Z,64.54
2022-10-28T05:48:25.017Z,64.23
2022-10-28T05:50:51.850Z,64.09
2022-10-28T05:53:18.552Z,64.25
2022-10-28T05:55:47.819Z,64.76
2022-10-28T05:58:14.867Z,64.38
2022-10-28T06:00:41.559Z,64.79
2022-10-28T06:03:12.034Z,65.09
2022-10-28T06:05:41.450Z,64.34
2022-10-28T06:08:08.306Z,64.76
2022-10-28T06:10:35.003Z,64.39
2022-10-28T06:13:01.715Z,64.61
2022-10-28T06:15:28.426Z,64.94
2022-10-28T06:17:55.060Z,65.09
2022-10-28T06:20:21.707Z,64.57
2022-10-28T06:22:49.232Z,64.34
2022-10-28T06:25:17.408Z,64.79
2022-10-28T06:27:44.247Z,64.44
2022-10-28T06:30:13.045Z,64.61
2022-10-28T06:32:39.698Z,65.29
2022-10-28T06:35:06.502Z,64.49
2022-10-28T06:37:33.163Z,64.92
2022-10-28T06:39:59.859Z,64.53
2022-10-28T06:42:26.560Z,64.50
2022-10-28T06:44:53.257Z,64.34
2022-10-28T06:47:23.005Z,64.28
2022-10-28T06:49:49.719Z,64.75
2022-10-28T06:52:16.671Z,64.18
2022-10-28T06:54:43.629Z,64.42
2022-10-28T06:57:10.619Z,64.78
2022-10-28T06:59:37.330Z,64.48
2022-10-28T07:02:04.236Z,64.70
2022-10-28T07:04:33.359Z,64.58
2022-10-28T07:07:00.140Z,64.74
2022-10-28T07:09:26.766Z,64.73
2022-10-28T07:11:55.121Z,64.58
2022-10-28T07:14:22.460Z,64.32
2022-10-28T07:16:49.169Z,64.06
2022-10-28T07:19:19.028Z,63.90
2022-10-28T07:21:49.783Z,63.78
2022-10-28T07:24:16.484Z,63.40
2022-10-28T07:26:43.221Z,63.21
2022-10-28T07:29:09.893Z,63.03
2022-10-28T07:31:36.496Z,62.63
2022-10-28T07:34:03.215Z,62.62
2022-10-28T07:36:29.897Z,62.50
2022-10-28T07:38:58.070Z,62.05
2022-10-28T07:41:25.401Z,62.13
2022-10-28T07:43:52.041Z,62.12
2022-10-28T07:46:19.647Z,61.91
2022-10-28T07:48:46.414Z,61.68
2022-10-28T07:51:15.445Z,61.24
2022-10-28T07:53:42.445Z,61.26
2022-10-28T07:56:13.791Z,60.58
2022-10-28T07:58:40.820Z,60.21
2022-10-28T08:01:09.243Z,60.30
2022-10-28T08:03:39.049Z,60.05
2022-10-28T08:06:08.865Z,59.72
2022-10-28T08:08:35.865Z,58.90
2022-10-28T08:11:10.491Z,58.89
2022-10-28T08:13:40.237Z,59.11
2022-10-28T08:16:08.162Z,59.18
2022-10-28T08:18:35.860Z,59.13
2022-10-28T08:21:04.083Z,58.91
2022-10-28T08:23:31.059Z,58.17
2022-10-28T08:25:58.107Z,58.06
2022-10-28T08:28:26.202Z,57.59
2022-10-28T08:31:04.048Z,56.92
2022-10-28T08:33:34.944Z,55.87
2022-10-28T08:36:01.704Z,55.21
2022-10-28T08:38:28.391Z,54.35
2022-10-28T08:41:04.960Z,53.00
2022-10-28T08:43:57.045Z,50.52
2022-10-28T08:46:42.387Z,48.61
2022-10-28T08:49:14.627Z,48.92
2022-10-28T08:51:49.358Z,48.52
2022-10-28T08:54:21.377Z,48.34
2022-10-28T08:56:49.756Z,47.49
2022-10-28T08:59:22.358Z,47.21
2022-10-28T09:01:52.389Z,46.73
2022-10-28T09:04:26.506Z,47.07
2022-10-28T09:06:53.945Z,47.34
2022-10-28T09:09:22.908Z,46.22
2022-10-28T09:24:23.148Z,44.06
2022-10-28T09:26:58.655Z,44.62
2022-10-28T09:29:44.616Z,45.95
2022-10-28T09:32:41.752Z,46.87
2022-10-28T09:35:16.566Z,47.67
2022-10-28T09:40:30.973Z,48.34
2022-10-28T09:43:05.539Z,48.41
2022-10-28T09:45:35.924Z,47.62
2022-10-28T09:48:09.310Z,46.43
2022-10-28T09:50:37.995Z,45.40
2022-10-28T09:53:09.449Z,44.84
2022-10-28T09:55:36.190Z,43.96
2022-10-28T09:58:03.193Z,41.61
2022-10-28T10:00:29.864Z,40.67
2022-10-28T10:02:58.020Z,40.39
2022-10-28T10:05:26.248Z,40.39
2022-10-28T10:07:57.849Z,40.51
2022-10-28T10:10:27.700Z,39.69
2022-10-28T10:12:59.439Z,37.58
2022-10-28T10:15:30.427Z,36.05
2022-10-28T10:18:00.551Z,36.28
2022-10-28T10:20:27.619Z,36.78
2022-10-28T10:22:55.978Z,36.45
2022-10-28T10:25:24.460Z,36.44
2022-10-28T10:27:53.149Z,36.57
2022-10-28T10:30:23.221Z,35.68
2022-10-28T10:32:51.357Z,35.83
2022-10-28T10:35:26.416Z,36.11
2022-10-28T10:37:53.882Z,36.26
2022-10-28T10:40:25.181Z,35.41
2022-10-28T10:43:10.009Z,36.11
2022-10-28T10:45:39.350Z,36.47
2022-10-28T10:48:15.065Z,36.05
2022-10-28T10:50:43.798Z,36.76
2022-10-28T10:53:23.218Z,36.63
2022-10-28T10:55:54.966Z,36.12
2022-10-28T10:58:24.246Z,36.02
2022-10-28T11:00:52.979Z,36.09
2022-10-28T11:03:25.881Z,36.60
2022-10-28T11:06:18.410Z,36.60
2022-10-28T11:08:44.207Z,35.90
2022-10-28T11:11:14.785Z,34.29
2022-10-28T11:13:45.149Z,34.51
2022-10-28T11:16:21.519Z,33.77
2022-10-28T11:18:50.766Z,34.31
2022-10-28T11:21:42.439Z,34.62
2022-10-28T11:24:25.474Z,35.14
2022-10-28T11:27:02.720Z,34.52
2022-10-28T11:29:29.478Z,34.57
2022-10-28T11:32:11.725Z,34.41
2022-10-28T11:35:04.824Z,33.95
2022-10-28T11:37:45.204Z,33.69
2022-10-28T11:40:25.513Z,32.24
2022-10-28T11:43:06.423Z,31.83
2022-10-28T11:45:38.917Z,31.45
2022-10-28T11:48:21.204Z,30.44
2022-10-28T11:51:09.889Z,30.84
2022-10-28T11:53:54.142Z,30.32
2022-10-28T11:56:33.372Z,31.16
2022-10-28T11:59:15.225Z,30.44
2022-10-28T12:01:53.327Z,30.39
2022-10-28T12:04:32.989Z,30.37
2022-10-28T12:07:15.738Z,30.81
2022-10-28T12:09:56.636Z,30.96
2022-10-28T12:12:30.826Z,30.29
2022-10-28T12:15:11.413Z,30.53
2022-10-28T12:17:46.220Z,29.23
2022-10-28T12:20:22.239Z,29.97
2022-10-28T12:22:53.262Z,29.54
2022-10-28T12:25:25.388Z,29.08
2022-10-28T12:27:55.791Z,29.22
2022-10-28T12:30:27.228Z,29.36
2022-10-28T12:32:58.867Z,29.29
2022-10-28T12:35:30.130Z,28.55
2022-10-28T12:38:03.107Z,29.00
2022-10-28T12:40:35.172Z,28.47
2022-10-28T12:43:06.468Z,28.08
2022-10-28T12:45:35.236Z,28.98
2022-10-28T12:48:09.350Z,28.93
2022-10-28T12:50:45.118Z,29.07
2022-10-28T12:53:24.746Z,28.75
2022-10-28T12:55:56.145Z,28.75
2022-10-28T12:58:30.090Z,28.84
2022-10-28T13:01:01.379Z,28.52
2022-10-28T13:03:28.334Z,28.86
2022-10-28T13:06:07.641Z,28.54
2022-10-28T13:08:59.268Z,29.27
2022-10-28T13:11:52.661Z,29.80
2022-10-28T13:14:54.431Z,29.84
2022-10-28T13:17:37.298Z,30.43
2022-10-28T13:20:17.476Z,30.62
2022-10-28T13:22:57.817Z,30.45
2022-10-28T13:25:49.186Z,30.78
2022-10-28T13:28:17.941Z,30.71
2022-10-28T13:30:56.069Z,31.12
2022-10-28T13:33:27.121Z,32.25
2022-10-28T13:35:55.451Z,33.45
2022-10-28T13:38:26.109Z,34.20
2022-10-28T13:41:28.597Z,35.08
2022-10-28T13:44:26.731Z,35.86
2022-10-28T13:47:24.451Z,36.43
2022-10-28T13:50:32.399Z,36.65
2022-10-28T13:53:42.690Z,36.23
2022-10-28T13:56:21.728Z,36.68
2022-10-28T13:58:51.350Z,36.64
2022-10-28T14:02:01.677Z,36.42
2022-10-28T14:04:38.002Z,36.83
2022-10-28T14:07:21.468Z,37.09
2022-10-28T14:09:52.664Z,37.85
2022-10-28T14:12:25.963Z,38.21
2022-10-28T14:14:58.558Z,38.11
2022-10-28T14:17:30.839Z,37.48
2022-10-28T14:19:57.660Z,37.76
2022-10-28T14:22:33.589Z,37.16
2022-10-28T14:25:00.859Z,37.77
2022-10-28T14:27:30.655Z,38.12
2022-10-28T14:30:21.331Z,38.60
2022-10-28T14:32:58.551Z,38.73
2022-10-28T14:35:33.268Z,39.53
2022-10-28T14:38:40.657Z,40.25
2022-10-28T14:41:33.930Z,40.49
2022-10-28T14:44:11.141Z,41.31
2022-10-28T14:46:52.299Z,41.94
2022-10-28T14:49:24.092Z,42.75
2022-10-28T14:51:52.309Z,42.48
2022-10-28T14:54:30.334Z,41.98
2022-10-28T14:56:57.575Z,42.39
2022-10-28T14:59:27.619Z,42.77
2022-10-28T15:02:01.227Z,43.52
2022-10-28T15:04:29.510Z,43.83
2022-10-28T15:06:56.766Z,44.02
2022-10-28T15:09:28.021Z,43.69
2022-10-28T15:11:58.931Z,43.23
2022-10-28T15:14:34.432Z,43.39
2022-10-28T15:17:10.565Z,43.46
2022-10-28T15:19:38.495Z,43.47
2022-10-28T15:22:11.822Z,43.75
2022-10-28T15:24:43.154Z,44.37
2022-10-28T15:27:14.023Z,44.61
2022-10-28T15:29:42.398Z,44.66
2022-10-28T15:32:16.201Z,44.81
2022-10-28T15:34:43.735Z,44.84
2022-10-28T15:37:10.935Z,44.51
2022-10-28T15:39:40.228Z,44.53
2022-10-28T15:42:29.668Z,44.66
2022-10-28T15:44:57.729Z,44.67
2022-10-28T15:47:29.859Z,44.77
2022-10-28T15:50:19.955Z,44.90
2022-10-28T15:52:48.225Z,44.83
2022-10-28T15:55:35.796Z,45.00
2022-10-28T15:58:40.371Z,45.37
2022-10-28T16:01:10.629Z,46.10
2022-10-28T16:03:42.761Z,46.09
2022-10-28T16:06:22.383Z,46.56
2022-10-28T16:09:00.075Z,46.55
2022-10-28T16:11:29.705Z,46.99
2022-10-28T16:13:56.750Z,47.05
2022-10-28T16:28:25.553Z,48.97
2022-10-28T16:33:39.383Z,49.26
2022-10-28T16:36:06.892Z,49.16
2022-10-28T16:38:34.326Z,49.09
2022-10-28T16:41:03.189Z,49.45
2022-10-28T16:43:32.169Z,49.18
2022-10-28T16:46:00.926Z,49.26
2022-10-28T16:48:29.777Z,49.25
2022-10-28T16:50:59.431Z,49.19
2022-10-28T16:53:27.223Z,49.21
2022-10-28T16:55:58.838Z,49.28
2022-10-28T16:58:26.984Z,49.22
2022-10-28T17:00:56.307Z,49.38
2022-10-28T17:03:23.313Z,49.58
2022-10-28T17:05:50.084Z,50.21
2022-10-28T17:08:26.448Z,50.53
2022-10-28T17:11:04.997Z,51.27
2022-10-28T17:16:38.038Z,51.80
2022-10-28T17:19:07.461Z,52.32
2022-10-28T17:21:34.846Z,52.64
2022-10-28T17:24:02.430Z,52.96
2022-10-28T17:29:32.271Z,52.93
2022-10-28T17:32:00.491Z,53.04
2022-10-28T17:34:27.240Z,52.93
2022-10-28T17:36:54.124Z,53.06
2022-10-28T17:39:25.846Z,53.79
2022-10-28T17:42:13.856Z,54.01
2022-10-28T17:44:40.903Z,54.36
2022-10-28T17:47:09.098Z,54.29
2022-10-28T17:49:36.517Z,54.47
2022-10-28T17:52:04.033Z,54.62
2022-10-28T17:54:32.536Z,54.50
2022-10-28T18:02:31.546Z,54.82
2022-10-28T18:04:58.582Z,55.08
2022-10-28T18:07:26.745Z,55.33
2022-10-28T18:09:53.644Z,56.36
2022-10-28T18:12:20.655Z,56.28
2022-10-28T18:14:48.059Z,56.15
2022-10-28T18:17:16.696Z,56.27
2022-10-28T18:19:46.302Z,55.92
2022-10-28T18:22:23.022Z,55.01
2022-10-28T18:24:50.960Z,55.34
2022-10-28T18:27:17.973Z,55.42
2022-10-28T18:29:46.509Z,55.48
2022-10-28T18:35:16.696Z,55.88
2022-10-28T18:37:43.695Z,55.65
2022-10-28T18:40:11.436Z,56.04
2022-10-28T18:42:38.144Z,55.81
2022-10-28T18:45:05.666Z,56.01
2022-10-28T18:47:34.386Z,56.70
2022-10-28T18:50:01.274Z,56.35
2022-10-28T18:55:07.123Z,55.92
2022-10-28T18:57:34.706Z,56.05
2022-10-28T19:00:18.737Z,56.17
2022-10-28T19:08:16.654Z,56.27
2022-10-28T19:10:44.887Z,56.06
2022-10-28T19:13:15.462Z,56.22
2022-10-28T19:15:47.605Z,56.27
2022-10-28T19:21:15.198Z,56.25
2022-10-28T19:26:28.236Z,56.70
2022-10-28T19:28:55.463Z,56.76
2022-10-28T19:34:05.981Z,56.90
2022-10-28T19:36:36.341Z,57.03
2022-10-28T19:39:03.967Z,56.58
2022-10-28T19:41:32.866Z,56.59
2022-10-28T19:44:00.529Z,56.51
2022-10-28T21:18:15.155Z,56.60
2022-10-28T21:27:04.334Z,56.98
2022-10-28T21:35:32.268Z,56.78
2022-10-28T22:22:31.656Z,57.41
2022-10-28T22:27:48.868Z,57.85
2022-10-28T22:33:11.213Z,58.01
2022-10-28T23:01:43.238Z,58.31
2022-10-28T23:04:11.487Z,58.46
2022-10-28T23:06:38.539Z,58.52
2022-10-28T23:09:05.569Z,58.47
2022-10-28T23:17:11.740Z,60.57
2022-10-28T23:28:19.953Z,58.68
2022-10-28T23:36:45.787Z,58.62
2022-10-28T23:39:12.524Z,59.33
2022-10-28T23:42:01.302Z,59.24
2022-10-28T23:44:28.157Z,60.05
2022-10-28T23:46:54.916Z,59.58
2022-10-28T23:49:21.927Z,60.22
2022-10-28T23:54:38.715Z,58.82
2022-10-28T23:57:05.681Z,59.95
